Atlanta (ATL/KATL)

Information

Location
Atlanta, GA
Local Time
21:46 / 9:46 pm
GMT Time
01:46 / 1:46 am
Gates
No FAA reported delays
METAR KATL 270052Z 32006KT 10SM FEW070 FEW150 SCT250 26/13 A3007 RMK AO2 SLP174 T02560133
TAF KATL 262336Z 2700/2806 32010KT P6SM FEW070 SCT250 FM270300 34005KT P6SM SCT250 FM271000 01005KT P6SM SCT250 FM271500 35008KT P6SM FEW050 SCT250 FM271900 33010KT P6SM SCT050 SCT150 FM280300 02005KT P6SM SKC